sensor_id;sensor_type;location;lat;lon;timestamp;P1;durP1;ratioP1;P2;durP2;ratioP2
80576;SDS011;69937;52.420;10.538;2023-10-19T00:03:28;9.50;;;7.22;;
80576;SDS011;69937;52.420;10.538;2023-10-19T00:08:29;9.85;;;7.95;;
80576;SDS011;69937;52.420;10.538;2023-10-19T00:13:42;9.25;;;7.47;;
80576;SDS011;69937;52.420;10.538;2023-10-19T00:18:44;15.52;;;9.50;;
80576;SDS011;69937;52.420;10.538;2023-10-19T00:23:45;12.30;;;7.97;;
80576;SDS011;69937;52.420;10.538;2023-10-19T00:28:49;10.98;;;7.45;;
80576;SDS011;69937;52.420;10.538;2023-10-19T00:33:55;11.75;;;7.75;;
80576;SDS011;69937;52.420;10.538;2023-10-19T00:38:56;14.43;;;9.63;;
80576;SDS011;69937;52.420;10.538;2023-10-19T00:43:57;11.55;;;8.68;;
80576;SDS011;69937;52.420;10.538;2023-10-19T00:49:11;10.25;;;6.63;;
80576;SDS011;69937;52.420;10.538;2023-10-19T00:54:35;10.30;;;7.78;;
80576;SDS011;69937;52.420;10.538;2023-10-19T00:59:37;11.25;;;7.88;;
80576;SDS011;69937;52.420;10.538;2023-10-19T01:05:04;11.00;;;8.35;;
80576;SDS011;69937;52.420;10.538;2023-10-19T01:10:06;14.70;;;8.55;;
80576;SDS011;69937;52.420;10.538;2023-10-19T01:15:23;9.48;;;7.65;;
80576;SDS011;69937;52.420;10.538;2023-10-19T01:20:30;12.00;;;9.02;;
80576;SDS011;69937;52.420;10.538;2023-10-19T01:25:31;10.90;;;7.90;;
80576;SDS011;69937;52.420;10.538;2023-10-19T01:30:36;12.13;;;8.45;;
80576;SDS011;69937;52.420;10.538;2023-10-19T01:35:38;11.02;;;7.82;;
80576;SDS011;69937;52.420;10.538;2023-10-19T01:40:58;12.98;;;8.70;;
80576;SDS011;69937;52.420;10.538;2023-10-19T01:46:02;13.00;;;8.35;;
80576;SDS011;69937;52.420;10.538;2023-10-19T01:51:11;12.57;;;8.20;;
80576;SDS011;69937;52.420;10.538;2023-10-19T01:56:15;11.35;;;8.20;;
80576;SDS011;69937;52.420;10.538;2023-10-19T02:01:17;10.45;;;7.82;;
80576;SDS011;69937;52.420;10.538;2023-10-19T02:06:28;11.50;;;8.52;;
80576;SDS011;69937;52.420;10.538;2023-10-19T02:11:38;14.30;;;9.02;;
80576;SDS011;69937;52.420;10.538;2023-10-19T02:16:42;13.85;;;8.80;;
80576;SDS011;69937;52.420;10.538;2023-10-19T02:21:43;11.95;;;9.40;;
80576;SDS011;69937;52.420;10.538;2023-10-19T02:26:49;15.38;;;9.02;;
80576;SDS011;69937;52.420;10.538;2023-10-19T02:31:52;12.15;;;8.23;;
80576;SDS011;69937;52.420;10.538;2023-10-19T02:36:54;12.50;;;9.35;;
80576;SDS011;69937;52.420;10.538;2023-10-19T02:41:55;13.23;;;9.05;;
80576;SDS011;69937;52.420;10.538;2023-10-19T02:46:56;11.32;;;9.25;;
80576;SDS011;69937;52.420;10.538;2023-10-19T02:51:59;23.55;;;10.68;;
80576;SDS011;69937;52.420;10.538;2023-10-19T02:57:03;11.68;;;9.52;;
80576;SDS011;69937;52.420;10.538;2023-10-19T03:02:09;13.90;;;10.15;;
80576;SDS011;69937;52.420;10.538;2023-10-19T03:07:12;13.43;;;10.10;;
80576;SDS011;69937;52.420;10.538;2023-10-19T03:12:13;12.98;;;10.10;;
80576;SDS011;69937;52.420;10.538;2023-10-19T03:17:14;16.02;;;9.65;;
80576;SDS011;69937;52.420;10.538;2023-10-19T03:22:15;14.80;;;9.70;;
80576;SDS011;69937;52.420;10.538;2023-10-19T03:27:17;20.70;;;10.13;;
80576;SDS011;69937;52.420;10.538;2023-10-19T03:32:23;18.95;;;10.35;;
80576;SDS011;69937;52.420;10.538;2023-10-19T03:37:32;16.45;;;10.25;;
80576;SDS011;69937;52.420;10.538;2023-10-19T03:42:35;14.02;;;10.55;;
80576;SDS011;69937;52.420;10.538;2023-10-19T03:47:40;15.02;;;9.57;;
80576;SDS011;69937;52.420;10.538;2023-10-19T03:52:43;18.70;;;10.63;;
80576;SDS011;69937;52.420;10.538;2023-10-19T03:57:45;14.98;;;10.68;;
80576;SDS011;69937;52.420;10.538;2023-10-19T04:02:55;17.08;;;9.65;;
80576;SDS011;69937;52.420;10.538;2023-10-19T04:07:58;15.85;;;10.75;;
80576;SDS011;69937;52.420;10.538;2023-10-19T04:12:59;15.75;;;11.30;;
80576;SDS011;69937;52.420;10.538;2023-10-19T04:18:00;13.43;;;10.18;;
80576;SDS011;69937;52.420;10.538;2023-10-19T04:23:02;15.45;;;11.07;;
80576;SDS011;69937;52.420;10.538;2023-10-19T04:28:10;16.25;;;10.48;;
80576;SDS011;69937;52.420;10.538;2023-10-19T04:33:10;19.52;;;11.05;;
80576;SDS011;69937;52.420;10.538;2023-10-19T04:38:11;16.48;;;10.52;;
80576;SDS011;69937;52.420;10.538;2023-10-19T04:43:11;16.80;;;10.50;;
80576;SDS011;69937;52.420;10.538;2023-10-19T04:48:12;16.38;;;10.02;;
80576;SDS011;69937;52.420;10.538;2023-10-19T04:53:12;17.65;;;10.98;;
80576;SDS011;69937;52.420;10.538;2023-10-19T04:58:13;15.45;;;10.02;;
80576;SDS011;69937;52.420;10.538;2023-10-19T05:03:14;16.17;;;9.75;;
80576;SDS011;69937;52.420;10.538;2023-10-19T05:08:18;15.48;;;11.35;;
80576;SDS011;69937;52.420;10.538;2023-10-19T05:13:19;17.60;;;11.05;;
80576;SDS011;69937;52.420;10.538;2023-10-19T05:18:23;15.90;;;10.60;;
80576;SDS011;69937;52.420;10.538;2023-10-19T05:23:24;14.02;;;10.57;;
80576;SDS011;69937;52.420;10.538;2023-10-19T05:28:25;17.13;;;13.60;;
80576;SDS011;69937;52.420;10.538;2023-10-19T05:33:28;13.02;;;9.68;;
80576;SDS011;69937;52.420;10.538;2023-10-19T05:38:29;13.63;;;11.10;;
80576;SDS011;69937;52.420;10.538;2023-10-19T05:43:31;14.27;;;9.77;;
80576;SDS011;69937;52.420;10.538;2023-10-19T05:48:34;14.18;;;10.38;;
80576;SDS011;69937;52.420;10.538;2023-10-19T05:53:34;11.85;;;9.02;;
80576;SDS011;69937;52.420;10.538;2023-10-19T05:58:37;13.45;;;10.27;;
80576;SDS011;69937;52.420;10.538;2023-10-19T06:03:37;14.45;;;9.50;;
80576;SDS011;69937;52.420;10.538;2023-10-19T06:08:40;14.00;;;9.25;;
80576;SDS011;69937;52.420;10.538;2023-10-19T06:13:40;16.48;;;10.90;;
80576;SDS011;69937;52.420;10.538;2023-10-19T06:18:43;11.90;;;9.25;;
80576;SDS011;69937;52.420;10.538;2023-10-19T06:23:43;17.20;;;10.85;;
80576;SDS011;69937;52.420;10.538;2023-10-19T06:28:44;14.85;;;9.57;;
80576;SDS011;69937;52.420;10.538;2023-10-19T06:33:45;18.27;;;15.63;;
80576;SDS011;69937;52.420;10.538;2023-10-19T06:38:45;11.48;;;9.43;;
80576;SDS011;69937;52.420;10.538;2023-10-19T06:43:46;16.77;;;11.70;;
80576;SDS011;69937;52.420;10.538;2023-10-19T06:48:46;16.77;;;10.15;;
80576;SDS011;69937;52.420;10.538;2023-10-19T06:53:47;16.35;;;13.68;;
80576;SDS011;69937;52.420;10.538;2023-10-19T06:58:47;12.68;;;10.07;;
80576;SDS011;69937;52.420;10.538;2023-10-19T07:03:49;14.20;;;10.02;;
80576;SDS011;69937;52.420;10.538;2023-10-19T07:08:53;11.73;;;9.00;;
80576;SDS011;69937;52.420;10.538;2023-10-19T07:13:53;11.88;;;9.45;;
80576;SDS011;69937;52.420;10.538;2023-10-19T07:18:54;12.32;;;9.77;;
80576;SDS011;69937;52.420;10.538;2023-10-19T07:23:57;14.45;;;9.13;;
80576;SDS011;69937;52.420;10.538;2023-10-19T07:29:01;11.90;;;9.05;;
80576;SDS011;69937;52.420;10.538;2023-10-19T07:34:02;8.75;;;7.28;;
80576;SDS011;69937;52.420;10.538;2023-10-19T07:39:03;11.02;;;8.07;;
80576;SDS011;69937;52.420;10.538;2023-10-19T07:44:04;11.77;;;8.82;;
80576;SDS011;69937;52.420;10.538;2023-10-19T07:49:05;10.70;;;9.02;;
80576;SDS011;69937;52.420;10.538;2023-10-19T07:54:05;10.60;;;7.65;;
80576;SDS011;69937;52.420;10.538;2023-10-19T07:59:06;9.05;;;8.10;;
80576;SDS011;69937;52.420;10.538;2023-10-19T08:04:07;8.38;;;7.55;;
80576;SDS011;69937;52.420;10.538;2023-10-19T08:09:07;9.23;;;7.65;;
80576;SDS011;69937;52.420;10.538;2023-10-19T08:14:11;9.27;;;8.23;;
80576;SDS011;69937;52.420;10.538;2023-10-19T08:19:11;11.75;;;7.75;;
80576;SDS011;69937;52.420;10.538;2023-10-19T08:24:12;8.23;;;7.25;;
80576;SDS011;69937;52.420;10.538;2023-10-19T08:29:17;9.05;;;7.15;;
80576;SDS011;69937;52.420;10.538;2023-10-19T08:34:19;10.15;;;7.85;;
80576;SDS011;69937;52.420;10.538;2023-10-19T08:39:20;8.18;;;5.70;;
80576;SDS011;69937;52.420;10.538;2023-10-19T08:44:21;8.70;;;7.07;;
80576;SDS011;69937;52.420;10.538;2023-10-19T08:49:21;7.68;;;6.22;;
80576;SDS011;69937;52.420;10.538;2023-10-19T08:54:22;7.70;;;6.10;;
80576;SDS011;69937;52.420;10.538;2023-10-19T08:59:22;7.30;;;6.18;;
80576;SDS011;69937;52.420;10.538;2023-10-19T09:04:23;7.32;;;5.90;;
80576;SDS011;69937;52.420;10.538;2023-10-19T09:09:26;6.93;;;6.32;;
80576;SDS011;69937;52.420;10.538;2023-10-19T09:14:35;7.78;;;6.65;;
80576;SDS011;69937;52.420;10.538;2023-10-19T09:19:40;7.68;;;6.40;;
80576;SDS011;69937;52.420;10.538;2023-10-19T09:24:43;7.38;;;6.43;;
80576;SDS011;69937;52.420;10.538;2023-10-19T09:29:49;7.78;;;6.28;;
80576;SDS011;69937;52.420;10.538;2023-10-19T09:34:53;8.90;;;8.07;;
80576;SDS011;69937;52.420;10.538;2023-10-19T09:39:55;6.57;;;5.68;;
80576;SDS011;69937;52.420;10.538;2023-10-19T09:44:58;6.95;;;5.80;;
80576;SDS011;69937;52.420;10.538;2023-10-19T09:50:05;9.00;;;6.47;;
80576;SDS011;69937;52.420;10.538;2023-10-19T09:55:08;6.93;;;5.55;;
80576;SDS011;69937;52.420;10.538;2023-10-19T10:00:13;6.72;;;5.78;;
80576;SDS011;69937;52.420;10.538;2023-10-19T10:10:42;6.65;;;5.93;;
80576;SDS011;69937;52.420;10.538;2023-10-19T10:15:43;7.60;;;6.43;;
80576;SDS011;69937;52.420;10.538;2023-10-19T10:20:48;6.65;;;5.63;;
80576;SDS011;69937;52.420;10.538;2023-10-19T10:26:04;10.00;;;8.95;;
80576;SDS011;69937;52.420;10.538;2023-10-19T10:36:16;7.50;;;6.00;;
80576;SDS011;69937;52.420;10.538;2023-10-19T10:41:21;6.72;;;5.47;;
80576;SDS011;69937;52.420;10.538;2023-10-19T10:46:25;8.80;;;7.35;;
80576;SDS011;69937;52.420;10.538;2023-10-19T10:51:29;10.07;;;9.10;;
80576;SDS011;69937;52.420;10.538;2023-10-19T10:56:30;7.38;;;6.38;;
80576;SDS011;69937;52.420;10.538;2023-10-19T11:01:32;9.13;;;7.50;;
80576;SDS011;69937;52.420;10.538;2023-10-19T11:06:33;7.22;;;6.45;;
80576;SDS011;69937;52.420;10.538;2023-10-19T11:11:37;9.98;;;7.35;;
80576;SDS011;69937;52.420;10.538;2023-10-19T11:16:38;11.98;;;8.32;;
80576;SDS011;69937;52.420;10.538;2023-10-19T11:21:50;10.55;;;7.38;;
80576;SDS011;69937;52.420;10.538;2023-10-19T11:26:54;12.85;;;8.65;;
80576;SDS011;69937;52.420;10.538;2023-10-19T11:32:01;13.02;;;8.88;;
80576;SDS011;69937;52.420;10.538;2023-10-19T11:37:02;11.38;;;8.70;;
80576;SDS011;69937;52.420;10.538;2023-10-19T11:42:05;14.80;;;9.32;;
80576;SDS011;69937;52.420;10.538;2023-10-19T11:47:05;12.52;;;8.93;;
80576;SDS011;69937;52.420;10.538;2023-10-19T11:52:09;16.27;;;9.68;;
80576;SDS011;69937;52.420;10.538;2023-10-19T11:57:09;14.68;;;9.00;;
80576;SDS011;69937;52.420;10.538;2023-10-19T12:02:10;15.20;;;9.85;;
80576;SDS011;69937;52.420;10.538;2023-10-19T12:07:11;15.77;;;10.98;;
80576;SDS011;69937;52.420;10.538;2023-10-19T12:12:12;14.18;;;10.48;;
80576;SDS011;69937;52.420;10.538;2023-10-19T12:17:13;14.32;;;11.05;;
80576;SDS011;69937;52.420;10.538;2023-10-19T12:22:13;15.85;;;10.90;;
80576;SDS011;69937;52.420;10.538;2023-10-19T12:27:14;13.90;;;10.18;;
80576;SDS011;69937;52.420;10.538;2023-10-19T12:32:15;19.77;;;11.93;;
80576;SDS011;69937;52.420;10.538;2023-10-19T12:37:16;16.33;;;11.15;;
80576;SDS011;69937;52.420;10.538;2023-10-19T12:42:17;19.27;;;11.60;;
80576;SDS011;69937;52.420;10.538;2023-10-19T12:47:18;19.67;;;14.05;;
80576;SDS011;69937;52.420;10.538;2023-10-19T12:52:21;19.58;;;12.02;;
80576;SDS011;69937;52.420;10.538;2023-10-19T12:57:22;20.08;;;14.48;;
80576;SDS011;69937;52.420;10.538;2023-10-19T13:02:23;21.40;;;12.52;;
80576;SDS011;69937;52.420;10.538;2023-10-19T13:07:24;19.40;;;12.40;;
80576;SDS011;69937;52.420;10.538;2023-10-19T13:12:26;21.63;;;12.02;;
80576;SDS011;69937;52.420;10.538;2023-10-19T13:17:26;22.17;;;12.52;;
80576;SDS011;69937;52.420;10.538;2023-10-19T13:22:27;23.90;;;13.02;;
80576;SDS011;69937;52.420;10.538;2023-10-19T13:27:27;21.70;;;12.60;;
80576;SDS011;69937;52.420;10.538;2023-10-19T13:32:29;21.23;;;12.50;;
80576;SDS011;69937;52.420;10.538;2023-10-19T13:37:31;22.95;;;13.43;;
80576;SDS011;69937;52.420;10.538;2023-10-19T13:42:32;24.33;;;13.25;;
80576;SDS011;69937;52.420;10.538;2023-10-19T13:47:34;24.45;;;13.48;;
80576;SDS011;69937;52.420;10.538;2023-10-19T13:52:35;19.98;;;12.05;;
80576;SDS011;69937;52.420;10.538;2023-10-19T13:57:36;26.10;;;13.85;;
80576;SDS011;69937;52.420;10.538;2023-10-19T14:02:36;21.00;;;12.50;;
80576;SDS011;69937;52.420;10.538;2023-10-19T14:07:37;25.25;;;12.98;;
80576;SDS011;69937;52.420;10.538;2023-10-19T14:12:39;26.70;;;16.45;;
80576;SDS011;69937;52.420;10.538;2023-10-19T14:17:43;22.23;;;13.80;;
80576;SDS011;69937;52.420;10.538;2023-10-19T14:22:48;24.10;;;13.45;;
80576;SDS011;69937;52.420;10.538;2023-10-19T14:27:50;27.85;;;13.57;;
80576;SDS011;69937;52.420;10.538;2023-10-19T14:32:52;27.15;;;13.57;;
80576;SDS011;69937;52.420;10.538;2023-10-19T14:37:53;22.70;;;12.63;;
80576;SDS011;69937;52.420;10.538;2023-10-19T14:42:55;25.92;;;11.65;;
80576;SDS011;69937;52.420;10.538;2023-10-19T14:47:59;23.58;;;13.85;;
80576;SDS011;69937;52.420;10.538;2023-10-19T14:53:03;26.70;;;13.00;;
80576;SDS011;69937;52.420;10.538;2023-10-19T14:58:04;23.90;;;13.15;;
80576;SDS011;69937;52.420;10.538;2023-10-19T15:03:06;28.48;;;14.07;;
80576;SDS011;69937;52.420;10.538;2023-10-19T15:08:09;24.25;;;13.55;;
80576;SDS011;69937;52.420;10.538;2023-10-19T15:13:10;25.13;;;12.85;;
80576;SDS011;69937;52.420;10.538;2023-10-19T15:18:11;24.15;;;12.98;;
80576;SDS011;69937;52.420;10.538;2023-10-19T15:23:12;25.45;;;14.23;;
80576;SDS011;69937;52.420;10.538;2023-10-19T15:28:13;23.10;;;12.88;;
80576;SDS011;69937;52.420;10.538;2023-10-19T15:33:13;25.58;;;13.45;;
80576;SDS011;69937;52.420;10.538;2023-10-19T15:38:14;26.30;;;13.85;;
80576;SDS011;69937;52.420;10.538;2023-10-19T15:43:15;25.27;;;13.60;;
80576;SDS011;69937;52.420;10.538;2023-10-19T15:48:15;22.58;;;12.73;;
80576;SDS011;69937;52.420;10.538;2023-10-19T15:53:16;23.92;;;13.18;;
80576;SDS011;69937;52.420;10.538;2023-10-19T15:58:17;29.30;;;12.98;;
80576;SDS011;69937;52.420;10.538;2023-10-19T16:03:21;25.27;;;12.70;;
80576;SDS011;69937;52.420;10.538;2023-10-19T16:08:21;22.20;;;11.93;;
80576;SDS011;69937;52.420;10.538;2023-10-19T16:13:22;20.48;;;11.80;;
80576;SDS011;69937;52.420;10.538;2023-10-19T16:18:22;20.73;;;11.27;;
80576;SDS011;69937;52.420;10.538;2023-10-19T16:23:23;21.75;;;11.02;;
80576;SDS011;69937;52.420;10.538;2023-10-19T16:28:24;15.90;;;9.93;;
80576;SDS011;69937;52.420;10.538;2023-10-19T16:33:24;24.05;;;12.25;;
80576;SDS011;69937;52.420;10.538;2023-10-19T16:38:25;20.50;;;10.75;;
80576;SDS011;69937;52.420;10.538;2023-10-19T16:43:25;22.42;;;11.60;;
80576;SDS011;69937;52.420;10.538;2023-10-19T16:48:27;22.38;;;12.05;;
80576;SDS011;69937;52.420;10.538;2023-10-19T16:53:28;21.48;;;11.80;;
80576;SDS011;69937;52.420;10.538;2023-10-19T16:58:28;23.85;;;12.77;;
80576;SDS011;69937;52.420;10.538;2023-10-19T17:03:29;23.05;;;12.77;;
80576;SDS011;69937;52.420;10.538;2023-10-19T17:08:30;23.92;;;13.43;;
80576;SDS011;69937;52.420;10.538;2023-10-19T17:13:31;27.38;;;13.68;;
80576;SDS011;69937;52.420;10.538;2023-10-19T17:18:32;25.30;;;13.45;;
80576;SDS011;69937;52.420;10.538;2023-10-19T17:23:34;25.63;;;12.60;;
80576;SDS011;69937;52.420;10.538;2023-10-19T17:28:35;22.65;;;12.38;;
80576;SDS011;69937;52.420;10.538;2023-10-19T17:33:37;26.52;;;13.52;;
80576;SDS011;69937;52.420;10.538;2023-10-19T17:38:37;27.13;;;15.65;;
80576;SDS011;69937;52.420;10.538;2023-10-19T17:43:38;25.40;;;13.35;;
80576;SDS011;69937;52.420;10.538;2023-10-19T17:48:40;27.55;;;12.35;;
80576;SDS011;69937;52.420;10.538;2023-10-19T17:53:40;28.20;;;13.43;;
80576;SDS011;69937;52.420;10.538;2023-10-19T17:58:42;27.33;;;13.23;;
80576;SDS011;69937;52.420;10.538;2023-10-19T18:03:43;22.52;;;11.48;;
80576;SDS011;69937;52.420;10.538;2023-10-19T18:08:43;21.70;;;11.55;;
80576;SDS011;69937;52.420;10.538;2023-10-19T18:13:44;25.98;;;12.45;;
80576;SDS011;69937;52.420;10.538;2023-10-19T18:18:46;16.67;;;10.73;;
80576;SDS011;69937;52.420;10.538;2023-10-19T18:23:49;25.52;;;11.63;;
80576;SDS011;69937;52.420;10.538;2023-10-19T18:28:49;21.15;;;14.60;;
80576;SDS011;69937;52.420;10.538;2023-10-19T18:33:50;21.50;;;10.98;;
80576;SDS011;69937;52.420;10.538;2023-10-19T18:38:50;19.55;;;14.05;;
80576;SDS011;69937;52.420;10.538;2023-10-19T18:43:51;16.25;;;9.88;;
80576;SDS011;69937;52.420;10.538;2023-10-19T18:48:53;15.30;;;9.63;;
80576;SDS011;69937;52.420;10.538;2023-10-19T18:53:55;17.33;;;10.52;;
80576;SDS011;69937;52.420;10.538;2023-10-19T18:58:55;16.55;;;9.98;;
80576;SDS011;69937;52.420;10.538;2023-10-19T19:03:56;13.90;;;9.23;;
80576;SDS011;69937;52.420;10.538;2023-10-19T19:08:57;19.73;;;11.30;;
80576;SDS011;69937;52.420;10.538;2023-10-19T19:13:57;18.23;;;9.70;;
80576;SDS011;69937;52.420;10.538;2023-10-19T19:18:58;21.67;;;10.50;;
80576;SDS011;69937;52.420;10.538;2023-10-19T19:23:59;13.48;;;8.45;;
80576;SDS011;69937;52.420;10.538;2023-10-19T19:29:00;16.98;;;9.85;;
80576;SDS011;69937;52.420;10.538;2023-10-19T19:34:01;15.75;;;8.95;;
80576;SDS011;69937;52.420;10.538;2023-10-19T19:39:02;14.20;;;8.60;;
80576;SDS011;69937;52.420;10.538;2023-10-19T19:44:03;12.80;;;9.02;;
80576;SDS011;69937;52.420;10.538;2023-10-19T19:49:04;13.00;;;8.20;;
80576;SDS011;69937;52.420;10.538;2023-10-19T19:54:04;14.38;;;8.95;;
80576;SDS011;69937;52.420;10.538;2023-10-19T19:59:05;12.10;;;7.47;;
80576;SDS011;69937;52.420;10.538;2023-10-19T20:04:05;11.00;;;7.78;;
80576;SDS011;69937;52.420;10.538;2023-10-19T20:09:06;12.38;;;8.02;;
80576;SDS011;69937;52.420;10.538;2023-10-19T20:14:10;13.88;;;7.80;;
80576;SDS011;69937;52.420;10.538;2023-10-19T20:19:11;10.85;;;7.35;;
80576;SDS011;69937;52.420;10.538;2023-10-19T20:24:13;10.35;;;7.38;;
80576;SDS011;69937;52.420;10.538;2023-10-19T20:29:13;12.25;;;7.28;;
80576;SDS011;69937;52.420;10.538;2023-10-19T20:34:14;9.60;;;7.07;;
80576;SDS011;69937;52.420;10.538;2023-10-19T20:39:14;9.88;;;7.20;;
80576;SDS011;69937;52.420;10.538;2023-10-19T20:44:15;8.50;;;6.88;;
80576;SDS011;69937;52.420;10.538;2023-10-19T20:49:16;17.35;;;7.00;;
80576;SDS011;69937;52.420;10.538;2023-10-19T20:54:17;10.80;;;8.30;;
80576;SDS011;69937;52.420;10.538;2023-10-19T20:59:17;9.45;;;7.10;;
80576;SDS011;69937;52.420;10.538;2023-10-19T21:04:20;10.90;;;7.80;;
80576;SDS011;69937;52.420;10.538;2023-10-19T21:09:21;9.95;;;6.80;;
80576;SDS011;69937;52.420;10.538;2023-10-19T21:14:21;10.93;;;7.63;;
80576;SDS011;69937;52.420;10.538;2023-10-19T21:19:22;11.70;;;8.10;;
80576;SDS011;69937;52.420;10.538;2023-10-19T21:24:22;11.52;;;8.05;;
80576;SDS011;69937;52.420;10.538;2023-10-19T21:29:23;12.13;;;8.20;;
80576;SDS011;69937;52.420;10.538;2023-10-19T21:34:24;9.88;;;7.85;;
80576;SDS011;69937;52.420;10.538;2023-10-19T21:39:24;11.43;;;7.57;;
80576;SDS011;69937;52.420;10.538;2023-10-19T21:44:25;11.18;;;7.85;;
80576;SDS011;69937;52.420;10.538;2023-10-19T21:49:26;13.07;;;8.63;;
80576;SDS011;69937;52.420;10.538;2023-10-19T21:54:27;11.60;;;9.15;;
80576;SDS011;69937;52.420;10.538;2023-10-19T21:59:28;12.52;;;8.38;;
80576;SDS011;69937;52.420;10.538;2023-10-19T22:04:28;13.45;;;8.10;;
80576;SDS011;69937;52.420;10.538;2023-10-19T22:09:29;16.25;;;8.60;;
80576;SDS011;69937;52.420;10.538;2023-10-19T22:14:32;13.48;;;8.70;;
80576;SDS011;69937;52.420;10.538;2023-10-19T22:19:33;12.38;;;8.88;;
80576;SDS011;69937;52.420;10.538;2023-10-19T22:24:33;13.55;;;8.00;;
80576;SDS011;69937;52.420;10.538;2023-10-19T22:29:34;14.38;;;8.27;;
80576;SDS011;69937;52.420;10.538;2023-10-19T22:34:35;15.02;;;9.23;;
80576;SDS011;69937;52.420;10.538;2023-10-19T22:39:36;16.80;;;9.73;;
80576;SDS011;69937;52.420;10.538;2023-10-19T22:44:36;10.68;;;8.20;;
80576;SDS011;69937;52.420;10.538;2023-10-19T22:49:38;16.00;;;9.50;;
80576;SDS011;69937;52.420;10.538;2023-10-19T22:54:39;15.13;;;10.20;;
80576;SDS011;69937;52.420;10.538;2023-10-19T22:59:39;12.77;;;9.40;;
80576;SDS011;69937;52.420;10.538;2023-10-19T23:04:40;15.55;;;10.15;;
80576;SDS011;69937;52.420;10.538;2023-10-19T23:09:40;15.93;;;9.32;;
80576;SDS011;69937;52.420;10.538;2023-10-19T23:14:41;16.30;;;10.18;;
80576;SDS011;69937;52.420;10.538;2023-10-19T23:19:45;12.43;;;9.07;;
80576;SDS011;69937;52.420;10.538;2023-10-19T23:24:48;13.98;;;9.55;;
80576;SDS011;69937;52.420;10.538;2023-10-19T23:29:55;15.93;;;9.20;;
80576;SDS011;69937;52.420;10.538;2023-10-19T23:34:57;15.55;;;9.80;;
80576;SDS011;69937;52.420;10.538;2023-10-19T23:39:58;13.05;;;7.93;;
80576;SDS011;69937;52.420;10.538;2023-10-19T23:44:58;14.50;;;9.07;;
80576;SDS011;69937;52.420;10.538;2023-10-19T23:49:59;15.73;;;8.85;;
80576;SDS011;69937;52.420;10.538;2023-10-19T23:55:00;10.15;;;7.78;;
